Flight Track Log - Related Links

Times and Time Zones

All times are in EDT time to prevent confusion due to time zone crossing. See the N27XP flight status page for this flight to view local times or setup timezone preferences in your user account.

Time Position Orientation Groundspeed Altitude Reporting Facility
EDT Latitude Longitude Course Direction KTS MPH feet Rate Location/Type
Fri 04:36:51 PM 33.5661 -86.7511 56° Northeast 169 194 1,200  Level Atlanta Center
Fri 04:37:40 PM 33.5878 -86.7119 56° Northeast 205 236 3,500 2,769 Climbing Atlanta Center
Fri 04:38:48 PM 33.5794 -86.6219 96° East 243 280 6,600 2,578 Climbing Atlanta Center
Fri 04:39:48 PM 33.5667 -86.5294 99° East 265 305 9,000 2,200 Climbing Atlanta Center
Fri 04:40:48 PM 33.5692 -86.4022 89° East 319 367 11,000 2,200 Climbing Atlanta Center
Fri 04:41:48 PM 33.5733 -86.2828 88° East 347 399 13,400 2,000 Climbing Atlanta Center
Fri 04:42:48 PM 33.5756 -86.1681 89° East 369 425 15,000 1,650 Climbing Atlanta Center
Fri 04:43:48 PM 33.5797 -86.0436 88° East 369 425 16,700 950 Climbing Atlanta Center
Fri 04:44:48 PM 33.5858 -85.9092 87° East 384 442 16,900 150 Climbing Atlanta Center
Fri 04:45:48 PM 33.5964 -85.7597 85° East 395 455 17,000 200 Climbing Atlanta Center
Fri 04:46:48 PM 33.5961 -85.6250 90° East 395 455 17,300 1,000 Climbing Atlanta Center
Fri 04:47:48 PM 33.6019 -85.4928 87° East 402 463 19,000 2,400 Climbing Atlanta Center
Fri 04:48:48 PM 33.6033 -85.3731 89° East 375 432 22,100 2,600 Climbing Atlanta Center
Fri 04:49:48 PM 33.6089 -85.2561 87° East 358 412 24,200 2,000 Climbing Atlanta Center
Fri 04:50:48 PM 33.6119 -85.1389 88° East 352 405 26,100 1,500 Climbing Atlanta Center
Fri 04:51:48 PM 33.6150 -85.0142 88° East 365 420 27,200 1,100 Climbing Atlanta Center
Fri 04:52:48 PM 33.6181 -84.8869 88° East 374 430 28,300 950 Climbing Atlanta Center
Fri 04:53:48 PM 33.6211 -84.7422 89° East 397 457 29,100 750 Climbing Atlanta Center
Fri 04:54:48 PM 33.6239 -84.6075 89° East 409 471 29,800 600 Climbing Atlanta Center
Fri 04:55:48 PM 33.6203 -84.4803 92° East 421 484 30,300 500 Climbing Atlanta Center
Fri 04:56:48 PM 33.6228 -84.3308 89° East 426 490 30,800 600 Climbing Atlanta Center
Fri 04:57:48 PM 33.6314 -84.1611 86° East 454 522 31,500 550 Climbing Atlanta Center
Fri 04:58:48 PM 33.6419 -84.0214 85° East 467 537 31,900 400 Climbing Atlanta Center
Fri 04:59:48 PM 33.6606 -83.8692 82° East 460 529 32,300 450 Climbing Atlanta Center
Fri 05:00:48 PM 33.6875 -83.7142 78° East 465 535 32,800 350 Climbing Atlanta Center
Fri 05:01:48 PM 33.7078 -83.5594 81° East 470 541 33,000 100 Climbing Atlanta Center
Fri 05:02:48 PM 33.7342 -83.3994 79° East 476 548 33,000  Level Atlanta Center
Fri 05:03:48 PM 33.7667 -83.2442 76° East 476 548 33,000  Level Atlanta Center
Fri 05:04:48 PM 33.8178 -83.0936 68° East 476 548 33,000 -300 Level Atlanta Center
Fri 05:05:48 PM 33.8772 -82.9578 62° Northeast 470 541 32,400 -1,300 Descending Atlanta Center
Fri 05:06:48 PM 33.9447 -82.8069 62° Northeast 465 535 30,400 -2,000 Descending Atlanta Center
Fri 05:07:48 PM 34.0036 -82.6681 63° Northeast 465 535 28,400 -1,700 Descending Atlanta Center
Fri 05:08:48 PM 34.0625 -82.5317 62° Northeast 454 522 27,000 -700 Descending Atlanta Center
Fri 05:09:48 PM 34.1150 -82.3853 67° East 454 522 27,000  Level Atlanta Center
Fri 05:10:48 PM 34.1675 -82.2561 64° Northeast 464 534 27,000 -850 Level Atlanta Center
Fri 05:11:48 PM 34.2258 -82.1119 64° Northeast 469 540 25,300 -1,000 Descending Atlanta Center
Fri 05:12:48 PM 34.2839 -81.9622 65° Northeast 469 540 25,000 -150 Descending Atlanta Center
Fri 05:13:48 PM 34.3439 -81.8172 63° Northeast 469 540 25,000  Level Atlanta Center
Fri 05:14:48 PM 34.4017 -81.6722 64° Northeast 469 540 25,000  Level Atlanta Center
Fri 05:15:48 PM 34.4594 -81.5294 64° Northeast 469 540 25,000  Level Atlanta Center
Fri 05:16:48 PM 34.5169 -81.3842 64° Northeast 469 540 25,000 -450 Level Atlanta Center
Fri 05:17:48 PM 34.5822 -81.2256 63° Northeast 469 540 24,100 -500 Descending Atlanta Center
Fri 05:18:48 PM 34.6392 -81.0772 65° Northeast 474 545 24,000 -205 Descending Atlanta Center
Fri 05:19:45 PM 34.6964 -80.9364 64° Northeast 473 544 23,700 -1,393 Descending Atlanta Center
Fri 05:20:40 PM 34.7453 -80.8081 65° Northeast 470 541 21,400 -2,431 Descending Atlanta Center
Fri 05:21:41 PM 34.8019 -80.6669 64° Northeast 457 526 19,000 -2,479 Descending Atlanta Center
Fri 05:22:41 PM 34.8525 -80.5383 64° Northeast 423 487 16,400 -2,628 Descending Atlanta Center
Fri 05:23:42 PM 34.8992 -80.4222 64° Northeast 377 434 13,700 -2,315 Descending Atlanta Center
Fri 05:24:48 PM 34.9414 -80.2989 67° East 361 415 11,500 -1,714 Descending Atlanta Center
Fri 05:25:48 PM 34.9803 -80.2008 64° Northeast 327 376 10,100 -1,150 Descending Atlanta Center
Fri 05:26:48 PM 35.0147 -80.1078 66° East 305 351 9,200 -550 Descending Atlanta Center
Fri 05:27:48 PM 35.0367 -80.0106 75° East 300 345 9,000 -600 Descending Atlanta Center
Fri 05:28:48 PM 35.0481 -79.9161 82° East 305 351 8,000 -1,000 Descending Atlanta Center

Login

Don't have an account? Register now (free) for customized features, flight alerts, and more!